Time;durP1;ratioP1;P1;durP2;ratioP2;P2;SDS_P1;SDS_P2;PMS_P1;PMS_P2;Temp;Humidity;BMP_temperature;BMP_pressure;BME280_temperature;BME280_humidity;BME280_pressure;Samples;Min_cycle;Max_cycle;Signal;HPM_P1;HPM_P2
2023/06/30 00:00:58;;;;;;;30.75;14.57;;;;;;;;;;4949804;28;20051;-58
2023/06/30 00:03:24;;;;;;;26.38;14.65;;;;;;;;;;4947311;28;20043;-59
2023/06/30 00:05:50;;;;;;;26.30;13.98;;;;;;;;;;4935638;29;20046;-59
2023/06/30 00:08:16;;;;;;;29.77;14.70;;;;;;;;;;4948029;28;20047;-59
2023/06/30 00:10:43;;;;;;;28.90;14.77;;;;;;;;;;4933222;29;20051;-59
2023/06/30 00:13:09;;;;;;;27.77;14.27;;;;;;;;;;4933788;29;20040;-59
2023/06/30 00:15:35;;;;;;;33.70;14.45;;;;;;;;;;4933940;29;20044;-59
2023/06/30 00:18:01;;;;;;;32.13;15.40;;;;;;;;;;4935457;28;20043;-59
2023/06/30 00:20:27;;;;;;;32.35;16.27;;;;;;;;;;4935817;29;20643;-59
2023/06/30 00:22:53;;;;;;;41.35;17.98;;;;;;;;;;4931539;29;20047;-58
2023/06/30 00:25:19;;;;;;;29.98;15.32;;;;;;;;;;4948169;28;20055;-59
2023/06/30 00:27:45;;;;;;;32.35;16.25;;;;;;;;;;4948063;28;20247;-59
2023/06/30 00:30:12;;;;;;;29.25;15.20;;;;;;;;;;4949151;28;20044;-59
2023/06/30 00:32:38;;;;;;;32.80;16.08;;;;;;;;;;4948384;28;20032;-59
2023/06/30 00:35:04;;;;;;;32.08;17.02;;;;;;;;;;4952942;28;20044;-58
2023/06/30 00:37:31;;;;;;;31.92;16.55;;;;;;;;;;4953423;28;20036;-59
2023/06/30 00:39:57;;;;;;;33.90;17.08;;;;;;;;;;4932944;28;20047;-59
2023/06/30 00:42:24;;;;;;;36.42;18.10;;;;;;;;;;4932015;29;20413;-58
2023/06/30 00:44:50;;;;;;;40.00;17.83;;;;;;;;;;4947603;28;20132;-58
2023/06/30 00:47:16;;;;;;;44.90;17.42;;;;;;;;;;4935470;29;20082;-58
2023/06/30 00:49:43;;;;;;;37.15;17.75;;;;;;;;;;4932048;29;20397;-58
2023/06/30 00:52:10;;;;;;;41.67;18.13;;;;;;;;;;4947279;28;20042;-59
2023/06/30 00:54:36;;;;;;;39.83;18.67;;;;;;;;;;4933615;29;20042;-58
2023/06/30 00:57:06;;;;;;;42.05;18.55;;;;;;;;;;4946640;28;20062;-58
2023/06/30 00:59:32;;;;;;;;;;;;;;;;;;4933953;29;20520;-58
2023/06/30 01:02:07;;;;;;;42.90;19.17;;;;;;;;;;4935033;28;19918;-58
2023/06/30 01:04:52;;;;;;;50.47;20.67;;;;;;;;;;4932270;29;20055;-58
2023/06/30 01:07:29;;;;;;;52.25;19.48;;;;;;;;;;4931223;29;20043;-58
2023/06/30 01:10:06;;;;;;;46.30;20.48;;;;;;;;;;4924987;29;20042;-58
2023/06/30 01:12:34;;;;;;;49.08;20.70;;;;;;;;;;4933272;28;20047;-58
2023/06/30 01:15:02;;;;;;;47.55;20.33;;;;;;;;;;4930722;29;20117;-58
2023/06/30 01:17:30;;;;;;;55.58;21.88;;;;;;;;;;4953745;28;20047;-59
2023/06/30 01:19:58;;;;;;;54.38;21.48;;;;;;;;;;4932597;29;20044;-58
2023/06/30 01:22:30;;;;;;;56.15;22.88;;;;;;;;;;4932754;29;20548;-58
2023/06/30 01:25:03;;;;;;;54.85;22.67;;;;;;;;;;4946818;28;20047;-58
2023/06/30 01:27:30;;;;;;;56.88;21.80;;;;;;;;;;4945209;28;20046;-58
2023/06/30 01:29:57;;;;;;;56.80;22.27;;;;;;;;;;4933792;29;20039;-58
2023/06/30 01:32:23;;;;;;;53.53;22.35;;;;;;;;;;4935789;29;20035;-58
2023/06/30 01:34:49;;;;;;;53.55;22.38;;;;;;;;;;4949233;28;20395;-59
2023/06/30 01:37:16;;;;;;;59.17;23.23;;;;;;;;;;4954772;28;20047;-59
2023/06/30 01:39:42;;;;;;;58.35;22.10;;;;;;;;;;4944370;29;20039;-59
2023/06/30 01:42:09;;;;;;;64.10;23.50;;;;;;;;;;4936373;29;20040;-59
2023/06/30 01:44:36;;;;;;;60.67;23.05;;;;;;;;;;4934436;29;20051;-58
2023/06/30 01:47:03;;;;;;;61.63;24.38;;;;;;;;;;4951052;28;20039;-59
2023/06/30 01:49:29;;;;;;;61.50;23.55;;;;;;;;;;4946650;29;20043;-58
2023/06/30 01:51:56;;;;;;;62.58;24.10;;;;;;;;;;4949754;28;20043;-58
2023/06/30 01:54:22;;;;;;;69.45;24.52;;;;;;;;;;4933566;29;20043;-59
2023/06/30 01:56:49;;;;;;;55.30;23.33;;;;;;;;;;4950753;28;20051;-59
2023/06/30 01:59:16;;;;;;;59.63;23.20;;;;;;;;;;4950787;28;20040;-58
2023/06/30 02:01:43;;;;;;;59.15;22.08;;;;;;;;;;4950138;28;20074;-59
2023/06/30 02:04:09;;;;;;;61.03;23.90;;;;;;;;;;4935035;28;20032;-58
2023/06/30 02:06:35;;;;;;;58.05;23.20;;;;;;;;;;4935816;29;20054;-59
2023/06/30 02:09:03;;;;;;;57.75;22.88;;;;;;;;;;4950120;28;20040;-59
2023/06/30 02:11:29;;;;;;;59.35;22.85;;;;;;;;;;4950305;28;20042;-59
2023/06/30 02:13:55;;;;;;;58.67;24.77;;;;;;;;;;4949091;28;20409;-59
2023/06/30 02:16:21;;;;;;;60.42;23.40;;;;;;;;;;4940161;29;20054;-59
2023/06/30 02:18:47;;;;;;;59.33;23.35;;;;;;;;;;4935490;29;20042;-58
2023/06/30 02:21:13;;;;;;;57.40;21.77;;;;;;;;;;4934358;29;20046;-59
2023/06/30 02:23:40;;;;;;;54.13;22.38;;;;;;;;;;4933661;29;20032;-59
2023/06/30 02:26:06;;;;;;;53.05;22.13;;;;;;;;;;4937764;29;20055;-59
2023/06/30 02:28:32;;;;;;;48.70;21.02;;;;;;;;;;4943037;29;20560;-59
2023/06/30 02:30:58;;;;;;;53.97;20.90;;;;;;;;;;4950033;28;20035;-58
2023/06/30 02:33:25;;;;;;;47.55;20.10;;;;;;;;;;4935047;29;20063;-58
2023/06/30 02:35:51;;;;;;;42.92;19.60;;;;;;;;;;4950578;28;20517;-59
2023/06/30 02:38:17;;;;;;;43.63;19.40;;;;;;;;;;4933914;29;20031;-58
2023/06/30 02:40:45;;;;;;;43.90;19.85;;;;;;;;;;4950327;28;20515;-58
2023/06/30 02:43:11;;;;;;;42.47;19.25;;;;;;;;;;4948317;28;20039;-58
2023/06/30 02:45:37;;;;;;;39.80;18.90;;;;;;;;;;4949776;28;20043;-58
2023/06/30 02:48:05;;;;;;;40.65;19.80;;;;;;;;;;4936936;29;20106;-59
2023/06/30 02:50:33;;;;;;;38.58;18.83;;;;;;;;;;4950252;28;20544;-59
2023/06/30 02:53:00;;;;;;;36.05;17.67;;;;;;;;;;4948435;28;20412;-59
2023/06/30 02:55:27;;;;;;;35.35;18.00;;;;;;;;;;4948608;28;20039;-59
2023/06/30 02:57:53;;;;;;;34.13;17.00;;;;;;;;;;4933575;29;20043;-59
2023/06/30 03:00:20;;;;;;;36.35;16.27;;;;;;;;;;4917308;29;20039;-59
2023/06/30 03:02:47;;;;;;;30.85;15.90;;;;;;;;;;4936353;29;20120;-59
2023/06/30 03:05:14;;;;;;;28.48;15.48;;;;;;;;;;4952250;28;20055;-59
2023/06/30 03:07:40;;;;;;;30.80;14.98;;;;;;;;;;4953736;28;20051;-59
2023/06/30 03:10:08;;;;;;;29.73;14.70;;;;;;;;;;4932904;29;20046;-58
2023/06/30 03:12:34;;;;;;;28.52;15.50;;;;;;;;;;4947995;28;20043;-58
2023/06/30 03:15:00;;;;;;;27.77;14.60;;;;;;;;;;4948749;28;20044;-59
2023/06/30 03:17:26;;;;;;;27.75;14.13;;;;;;;;;;4950915;28;20036;-59
2023/06/30 03:19:52;;;;;;;26.98;14.35;;;;;;;;;;4934245;29;20039;-58
2023/06/30 03:22:19;;;;;;;25.40;14.52;;;;;;;;;;4947940;28;20363;-59
2023/06/30 03:24:45;;;;;;;24.00;13.60;;;;;;;;;;4933932;29;20066;-59
2023/06/30 03:27:11;;;;;;;24.35;13.93;;;;;;;;;;4931617;29;20048;-59
2023/06/30 03:29:37;;;;;;;23.42;12.88;;;;;;;;;;4936092;29;20482;-58
2023/06/30 03:32:04;;;;;;;24.65;14.73;;;;;;;;;;4936132;29;20040;-58
2023/06/30 03:34:30;;;;;;;23.10;13.15;;;;;;;;;;4953915;28;20036;-58
2023/06/30 03:36:57;;;;;;;21.90;13.48;;;;;;;;;;4953133;28;20078;-59
2023/06/30 03:39:23;;;;;;;24.73;14.02;;;;;;;;;;4933253;29;20047;-58
2023/06/30 03:41:49;;;;;;;24.38;13.85;;;;;;;;;;4935439;29;20417;-59
2023/06/30 03:44:17;;;;;;;25.27;14.32;;;;;;;;;;4950919;28;20040;-59
2023/06/30 03:46:43;;;;;;;27.60;14.32;;;;;;;;;;4933443;29;20047;-58
2023/06/30 03:49:09;;;;;;;27.88;14.35;;;;;;;;;;4933615;28;20036;-60
2023/06/30 03:51:38;;;;;;;25.25;13.38;;;;;;;;;;4948247;28;20063;-59
2023/06/30 03:54:04;;;;;;;24.95;14.52;;;;;;;;;;4933154;29;20066;-59
2023/06/30 03:56:33;;;;;;;24.65;13.70;;;;;;;;;;4933156;29;20386;-59
2023/06/30 03:58:59;;;;;;;22.25;13.90;;;;;;;;;;4936345;29;20031;-59
2023/06/30 04:01:26;;;;;;;23.95;13.35;;;;;;;;;;4937339;29;21761;-59
2023/06/30 04:03:52;;;;;;;23.92;13.30;;;;;;;;;;4937216;28;20050;-59
2023/06/30 04:06:19;;;;;;;24.48;14.25;;;;;;;;;;4936852;29;20031;-59
2023/06/30 04:08:45;;;;;;;22.65;13.98;;;;;;;;;;4938736;28;20047;-59
2023/06/30 04:11:11;;;;;;;22.85;14.55;;;;;;;;;;4933477;29;20433;-58
2023/06/30 04:13:37;;;;;;;24.85;14.25;;;;;;;;;;4932279;29;20031;-59
2023/06/30 04:16:04;;;;;;;24.00;13.93;;;;;;;;;;4931611;29;20047;-60
2023/06/30 04:18:30;;;;;;;25.52;14.50;;;;;;;;;;4933140;29;20422;-59
2023/06/30 04:20:56;;;;;;;24.90;14.50;;;;;;;;;;4932595;29;20048;-59
2023/06/30 04:23:22;;;;;;;27.58;14.50;;;;;;;;;;4932283;29;20425;-60
2023/06/30 04:25:48;;;;;;;26.23;14.75;;;;;;;;;;4933323;29;20036;-60
2023/06/30 04:28:14;;;;;;;26.77;14.93;;;;;;;;;;4934755;29;20043;-59
2023/06/30 04:30:40;;;;;;;29.48;15.52;;;;;;;;;;4933464;28;20056;-60
2023/06/30 04:33:06;;;;;;;27.20;14.85;;;;;;;;;;4932278;29;20035;-59
2023/06/30 04:35:33;;;;;;;28.63;14.88;;;;;;;;;;4932520;29;20056;-59
2023/06/30 04:37:59;;;;;;;27.80;15.90;;;;;;;;;;4932705;29;20038;-60
2023/06/30 04:40:25;;;;;;;28.42;14.20;;;;;;;;;;4947663;28;20532;-59
2023/06/30 04:42:51;;;;;;;27.35;15.02;;;;;;;;;;4932159;29;20035;-59
2023/06/30 04:45:17;;;;;;;26.58;15.27;;;;;;;;;;4934607;29;20039;-60
2023/06/30 04:47:44;;;;;;;28.08;15.77;;;;;;;;;;4933125;29;20040;-60
2023/06/30 04:50:10;;;;;;;27.48;15.40;;;;;;;;;;4937888;29;20592;-60
2023/06/30 04:52:36;;;;;;;26.65;15.50;;;;;;;;;;4936505;29;20036;-59
2023/06/30 04:55:02;;;;;;;28.27;15.18;;;;;;;;;;4943027;29;20066;-60
2023/06/30 04:57:29;;;;;;;28.73;16.05;;;;;;;;;;4943945;29;20504;-59
2023/06/30 04:59:56;;;;;;;25.45;15.50;;;;;;;;;;4941366;29;20042;-60
2023/06/30 05:02:23;;;;;;;23.08;14.43;;;;;;;;;;4940219;29;20031;-60
2023/06/30 05:04:49;;;;;;;30.70;15.93;;;;;;;;;;4939745;28;20366;-60
2023/06/30 05:07:15;;;;;;;26.23;15.60;;;;;;;;;;4945958;29;20496;-59
2023/06/30 05:09:41;;;;;;;27.38;15.35;;;;;;;;;;4937541;29;20042;-60
2023/06/30 05:12:07;;;;;;;30.77;16.42;;;;;;;;;;4937447;29;20074;-60
2023/06/30 05:14:34;;;;;;;24.70;15.05;;;;;;;;;;4945832;29;20054;-60
2023/06/30 05:17:00;;;;;;;25.25;13.98;;;;;;;;;;4937319;29;20035;-61
2023/06/30 05:19:26;;;;;;;25.73;14.10;;;;;;;;;;4953460;29;20486;-60
2023/06/30 05:21:52;;;;;;;27.95;14.15;;;;;;;;;;4952737;29;20035;-61
2023/06/30 05:24:18;;;;;;;24.38;15.15;;;;;;;;;;4942012;28;20421;-60
2023/06/30 05:26:45;;;;;;;23.85;14.52;;;;;;;;;;4949238;29;20043;-61
2023/06/30 05:29:11;;;;;;;23.48;13.73;;;;;;;;;;4952508;29;20519;-61
2023/06/30 05:31:40;;;;;;;26.23;14.25;;;;;;;;;;4953224;29;20043;-61
2023/06/30 05:34:06;;;;;;;21.45;14.00;;;;;;;;;;4952385;29;20377;-60
2023/06/30 05:36:32;;;;;;;23.58;14.57;;;;;;;;;;4950504;28;20047;-60
2023/06/30 05:38:58;;;;;;;23.55;14.93;;;;;;;;;;4937805;28;20078;-60
2023/06/30 05:41:24;;;;;;;26.77;16.33;;;;;;;;;;4938032;28;20047;-59
2023/06/30 05:43:50;;;;;;;29.92;16.15;;;;;;;;;;4936214;29;20046;-60
2023/06/30 05:46:16;;;;;;;23.45;14.50;;;;;;;;;;4937411;28;20051;-59
2023/06/30 05:48:42;;;;;;;23.85;14.43;;;;;;;;;;4938737;29;20044;-59
2023/06/30 05:51:09;;;;;;;24.10;14.88;;;;;;;;;;4945440;29;20039;-59
2023/06/30 05:53:35;;;;;;;21.17;15.20;;;;;;;;;;4945510;28;20411;-59
2023/06/30 05:56:01;;;;;;;22.73;14.90;;;;;;;;;;4939926;28;20044;-59
2023/06/30 05:58:27;;;;;;;21.55;14.80;;;;;;;;;;4949026;29;20125;-58
2023/06/30 06:00:53;;;;;;;29.58;15.77;;;;;;;;;;4936693;29;20035;-60
2023/06/30 06:03:20;;;;;;;22.02;14.55;;;;;;;;;;4937154;29;20039;-60
2023/06/30 06:05:46;;;;;;;26.13;15.32;;;;;;;;;;4954983;28;20553;-61
2023/06/30 06:08:12;;;;;;;23.83;14.82;;;;;;;;;;4950024;28;20047;-58
2023/06/30 06:10:38;;;;;;;25.88;15.65;;;;;;;;;;4952311;29;20035;-60
2023/06/30 06:13:04;;;;;;;25.48;15.88;;;;;;;;;;4943691;29;20035;-59
2023/06/30 06:15:30;;;;;;;28.40;16.00;;;;;;;;;;4948220;29;20043;-59
2023/06/30 06:17:56;;;;;;;27.95;16.17;;;;;;;;;;4949130;29;20040;-60
2023/06/30 06:20:23;;;;;;;24.70;15.15;;;;;;;;;;4951189;28;20405;-61
2023/06/30 06:22:49;;;;;;;25.80;15.88;;;;;;;;;;4951330;28;20050;-60
2023/06/30 06:25:15;;;;;;;25.10;15.32;;;;;;;;;;4941200;29;20039;-59
2023/06/30 06:27:41;;;;;;;27.70;16.77;;;;;;;;;;4936280;29;20043;-59
2023/06/30 06:30:08;;;;;;;25.42;16.70;;;;;;;;;;4938846;29;20043;-59
2023/06/30 06:32:34;;;;;;;26.05;17.75;;;;;;;;;;4951238;28;20047;-59
2023/06/30 06:35:00;;;;;;;32.47;18.02;;;;;;;;;;4941218;29;20047;-59
2023/06/30 06:37:26;;;;;;;24.70;15.80;;;;;;;;;;4935915;29;20425;-59
2023/06/30 06:39:52;;;;;;;34.00;18.75;;;;;;;;;;4938030;29;20039;-59
2023/06/30 06:42:18;;;;;;;30.38;17.88;;;;;;;;;;4951369;29;20425;-59
2023/06/30 06:44:47;;;;;;;;;;;;;;;;;;4941260;28;20472;-60
2023/06/30 06:47:51;;;;;;;24.00;15.38;;;;;;;;;;4945095;29;19990;-60
2023/06/30 06:50:17;;;;;;;27.80;15.93;;;;;;;;;;4950180;28;20039;-60
2023/06/30 06:52:43;;;;;;;24.10;14.57;;;;;;;;;;4946006;28;20056;-60
2023/06/30 06:55:09;;;;;;;26.75;15.95;;;;;;;;;;4946335;29;20502;-60
2023/06/30 06:57:35;;;;;;;29.52;16.30;;;;;;;;;;4935685;29;20043;-60
2023/06/30 07:00:02;;;;;;;27.92;15.35;;;;;;;;;;4935509;29;20039;-59
2023/06/30 07:02:28;;;;;;;38.85;21.75;;;;;;;;;;4945075;28;20047;-60
2023/06/30 07:04:55;;;;;;;32.45;18.63;;;;;;;;;;4936839;28;20052;-60
2023/06/30 07:07:21;;;;;;;29.65;15.90;;;;;;;;;;4949499;29;20048;-60
2023/06/30 07:09:47;;;;;;;25.38;15.63;;;;;;;;;;4951493;29;20038;-60
2023/06/30 07:12:13;;;;;;;29.05;15.63;;;;;;;;;;4941554;29;20107;-60
2023/06/30 07:14:39;;;;;;;28.38;16.42;;;;;;;;;;4947414;29;20489;-60
2023/06/30 07:17:05;;;;;;;30.60;16.17;;;;;;;;;;4936268;29;20063;-60
2023/06/30 07:19:31;;;;;;;28.58;17.42;;;;;;;;;;4946772;28;20088;-60
2023/06/30 07:21:58;;;;;;;28.92;17.05;;;;;;;;;;4943335;29;20042;-60
2023/06/30 07:24:24;;;;;;;27.52;15.57;;;;;;;;;;4950631;28;20054;-60
2023/06/30 07:26:50;;;;;;;28.10;14.48;;;;;;;;;;4932174;29;20062;-59
2023/06/30 07:29:16;;;;;;;24.50;13.90;;;;;;;;;;4950832;29;20494;-60
2023/06/30 07:31:42;;;;;;;24.95;15.00;;;;;;;;;;4942168;29;20047;-60
2023/06/30 07:34:08;;;;;;;26.25;14.82;;;;;;;;;;4945812;29;20039;-59
2023/06/30 07:36:35;;;;;;;27.55;14.35;;;;;;;;;;4947322;29;20031;-60
2023/06/30 07:39:01;;;;;;;30.65;14.23;;;;;;;;;;4934834;29;20047;-61
2023/06/30 07:41:34;;;;;;;28.20;15.02;;;;;;;;;;4956861;28;20062;-60
2023/06/30 07:44:01;;;;;;;26.05;14.50;;;;;;;;;;4936930;29;20406;-60
2023/06/30 07:46:28;;;;;;;26.67;14.68;;;;;;;;;;4934352;29;20039;-60
2023/06/30 07:48:54;;;;;;;24.38;14.57;;;;;;;;;;4932027;29;20043;-60
2023/06/30 07:51:20;;;;;;;22.70;14.20;;;;;;;;;;4942449;28;20043;-59
2023/06/30 07:53:46;;;;;;;26.02;15.35;;;;;;;;;;4938846;28;20051;-59
2023/06/30 07:56:12;;;;;;;20.55;13.52;;;;;;;;;;4934343;29;20042;-59
2023/06/30 07:58:38;;;;;;;25.15;13.55;;;;;;;;;;4947555;28;20433;-59
2023/06/30 08:01:04;;;;;;;23.00;14.38;;;;;;;;;;4934499;29;20055;-60
2023/06/30 08:03:31;;;;;;;24.05;14.70;;;;;;;;;;4948389;28;20047;-60
2023/06/30 08:05:58;;;;;;;28.50;16.60;;;;;;;;;;4933800;29;20044;-60
2023/06/30 08:08:24;;;;;;;31.17;18.17;;;;;;;;;;4936668;29;20043;-60
2023/06/30 08:10:50;;;;;;;30.25;15.23;;;;;;;;;;4944031;28;20051;-59
2023/06/30 08:13:16;;;;;;;23.75;14.98;;;;;;;;;;4933373;29;20051;-60
2023/06/30 08:15:43;;;;;;;24.00;14.40;;;;;;;;;;4933939;29;20048;-60
2023/06/30 08:18:11;;;;;;;23.67;14.50;;;;;;;;;;4948608;28;20040;-60
2023/06/30 08:20:37;;;;;;;23.17;14.27;;;;;;;;;;4933907;28;20506;-60
2023/06/30 08:23:04;;;;;;;26.92;14.57;;;;;;;;;;4932815;29;20040;-59
2023/06/30 08:25:30;;;;;;;27.45;14.95;;;;;;;;;;4933610;29;20039;-60
2023/06/30 08:27:56;;;;;;;24.83;14.15;;;;;;;;;;4938543;29;20593;-60
2023/06/30 08:30:23;;;;;;;25.98;13.48;;;;;;;;;;4950160;28;20054;-61
2023/06/30 08:32:49;;;;;;;21.42;12.63;;;;;;;;;;4949268;28;20046;-60
2023/06/30 08:35:15;;;;;;;22.27;12.23;;;;;;;;;;4937158;28;20429;-60
2023/06/30 08:37:42;;;;;;;21.90;12.65;;;;;;;;;;4961282;28;20035;-60
2023/06/30 08:40:09;;;;;;;28.13;13.82;;;;;;;;;;4939239;28;20047;-60
2023/06/30 08:42:36;;;;;;;24.92;13.65;;;;;;;;;;4949712;28;20039;-60
2023/06/30 08:45:04;;;;;;;24.40;13.45;;;;;;;;;;4941575;29;20050;-59
2023/06/30 08:47:32;;;;;;;24.25;12.55;;;;;;;;;;4937093;29;20397;-60
2023/06/30 08:49:58;;;;;;;25.23;12.93;;;;;;;;;;4938672;29;20046;-60
2023/06/30 08:52:25;;;;;;;25.13;13.60;;;;;;;;;;4937505;29;20506;-60
2023/06/30 08:54:51;;;;;;;26.65;13.35;;;;;;;;;;4950108;29;20059;-59
2023/06/30 08:57:20;;;;;;;24.83;13.90;;;;;;;;;;4952889;28;20043;-60
2023/06/30 08:59:46;;;;;;;26.15;13.77;;;;;;;;;;4953757;29;20497;-60
2023/06/30 09:02:13;;;;;;;29.30;15.07;;;;;;;;;;4947348;29;20046;-60
2023/06/30 09:04:40;;;;;;;26.67;14.15;;;;;;;;;;4945676;28;20413;-60
2023/06/30 09:07:20;;;;;;;33.45;16.92;;;;;;;;;;4937179;29;20409;-59
2023/06/30 09:09:48;;;;;;;34.20;16.05;;;;;;;;;;4953640;28;20416;-60
2023/06/30 09:12:16;;;;;;;35.50;16.73;;;;;;;;;;4953419;28;20521;-60
2023/06/30 09:14:45;;;;;;;35.15;16.73;;;;;;;;;;4951479;28;20051;-59
2023/06/30 09:17:11;;;;;;;;;;;;;;;;;;4950203;29;20382;-60
2023/06/30 09:19:38;;;;;;;31.35;16.08;;;;;;;;;;4943415;29;20380;-60
2023/06/30 09:22:05;;;;;;;33.97;16.23;;;;;;;;;;4939931;29;20421;-60
2023/06/30 09:24:31;;;;;;;32.50;17.05;;;;;;;;;;4949223;29;20043;-59
2023/06/30 09:26:58;;;;;;;31.77;16.42;;;;;;;;;;4951246;29;20375;-58
2023/06/30 09:29:24;;;;;;;32.63;15.70;;;;;;;;;;4942542;29;20032;-59
2023/06/30 09:31:52;;;;;;;31.40;17.00;;;;;;;;;;4941598;28;20067;-58
2023/06/30 09:34:21;;;;;;;34.83;16.80;;;;;;;;;;4934466;29;20040;-58
2023/06/30 09:36:49;;;;;;;31.20;16.52;;;;;;;;;;4942810;29;20062;-58
2023/06/30 09:39:15;;;;;;;34.05;16.17;;;;;;;;;;4944486;28;20058;-58
2023/06/30 09:41:43;;;;;;;30.30;15.98;;;;;;;;;;4945115;29;20031;-59
2023/06/30 09:44:11;;;;;;;37.20;17.50;;;;;;;;;;4938545;29;20036;-60
2023/06/30 09:46:47;;;;;;;36.30;18.23;;;;;;;;;;4935343;29;20044;-59
2023/06/30 09:49:30;;;;;;;35.72;18.13;;;;;;;;;;4943453;29;20660;-58
2023/06/30 09:51:58;;;;;;;34.28;17.55;;;;;;;;;;4965566;28;20062;-59
2023/06/30 09:54:24;;;;;;;33.88;17.83;;;;;;;;;;4935785;29;20051;-59
2023/06/30 09:57:00;;;;;;;33.95;17.60;;;;;;;;;;4947849;29;20043;-59
2023/06/30 09:59:27;;;;;;;35.30;18.42;;;;;;;;;;4936525;29;20039;-59
2023/06/30 10:01:54;;;;;;;35.33;17.83;;;;;;;;;;4936408;29;20386;-59
2023/06/30 10:04:21;;;;;;;33.03;17.45;;;;;;;;;;4934217;29;20060;-59
2023/06/30 10:06:47;;;;;;;36.03;16.98;;;;;;;;;;4942055;28;20062;-59
2023/06/30 10:09:20;;;;;;;33.35;17.60;;;;;;;;;;4943030;28;20051;-59
2023/06/30 10:11:50;;;;;;;35.42;18.45;;;;;;;;;;4935993;29;20039;-58
2023/06/30 10:14:28;;;;;;;33.58;17.02;;;;;;;;;;4949283;28;20421;-60
2023/06/30 10:17:02;;;;;;;32.15;16.42;;;;;;;;;;4936444;29;20051;-59
2023/06/30 10:19:29;;;;;;;32.33;16.42;;;;;;;;;;4947537;29;20065;-59
2023/06/30 10:21:56;;;;;;;35.45;17.52;;;;;;;;;;4948653;29;20027;-60
2023/06/30 10:24:32;;;;;;;34.67;17.48;;;;;;;;;;4951474;28;20062;-59
2023/06/30 10:27:00;;;;;;;32.63;16.42;;;;;;;;;;4942279;29;20036;-60
2023/06/30 10:29:30;;;;;;;34.58;16.35;;;;;;;;;;4948422;29;20046;-59
2023/06/30 10:31:57;;;;;;;30.48;16.05;;;;;;;;;;4948575;28;20039;-60
2023/06/30 10:34:24;;;;;;;33.75;17.90;;;;;;;;;;4942334;28;20406;-60
2023/06/30 10:36:50;;;;;;;36.03;17.63;;;;;;;;;;4942042;28;20078;-59
2023/06/30 10:39:17;;;;;;;34.45;17.60;;;;;;;;;;4949308;28;20051;-59
2023/06/30 10:41:50;;;;;;;32.20;16.73;;;;;;;;;;4949723;29;20393;-59
2023/06/30 10:44:20;;;;;;;33.45;17.60;;;;;;;;;;4942176;28;20051;-59
2023/06/30 10:46:52;;;;;;;37.10;18.20;;;;;;;;;;4937386;29;20047;-58
2023/06/30 10:49:23;;;;;;;38.75;16.83;;;;;;;;;;4946115;29;20040;-59
2023/06/30 10:51:50;;;;;;;36.85;18.95;;;;;;;;;;4939081;29;20047;-58
2023/06/30 10:54:27;;;;;;;31.00;17.13;;;;;;;;;;4921047;29;20043;-59
2023/06/30 10:57:24;;;;;;;36.20;18.48;;;;;;;;;;4935510;29;20039;-59
2023/06/30 11:00:03;;;;;;;31.27;16.58;;;;;;;;;;4928082;29;20054;-58
2023/06/30 11:02:54;;;;;;;35.15;17.67;;;;;;;;;;4938991;29;20062;-59
2023/06/30 11:05:23;;;;;;;39.85;18.73;;;;;;;;;;4935975;28;20054;-59
2023/06/30 11:07:52;;;;;;;32.85;17.52;;;;;;;;;;4945395;29;20062;-59
2023/06/30 11:10:32;;;;;;;37.35;17.70;;;;;;;;;;4935218;29;20039;-59
2023/06/30 11:13:02;;;;;;;35.33;17.83;;;;;;;;;;4946964;28;20059;-59
2023/06/30 11:15:29;;;;;;;35.90;17.65;;;;;;;;;;4951218;29;20031;-59
2023/06/30 11:17:55;;;;;;;34.00;17.05;;;;;;;;;;4943669;28;20063;-59
2023/06/30 11:20:27;;;;;;;38.75;18.50;;;;;;;;;;4946755;29;20594;-59
2023/06/30 11:23:01;;;;;;;39.60;18.50;;;;;;;;;;4942549;29;20044;-59
2023/06/30 11:25:28;;;;;;;38.97;17.08;;;;;;;;;;4941302;28;20051;-58
2023/06/30 11:27:56;;;;;;;36.53;18.15;;;;;;;;;;4951450;28;20059;-59
2023/06/30 11:30:23;;;;;;;40.42;18.45;;;;;;;;;;4937639;29;20043;-59
2023/06/30 11:32:55;;;;;;;35.13;18.15;;;;;;;;;;4947385;28;20051;-59
2023/06/30 11:35:22;;;;;;;33.60;16.63;;;;;;;;;;4944524;29;20386;-59
2023/06/30 11:37:50;;;;;;;33.78;18.00;;;;;;;;;;4944960;29;20046;-59
2023/06/30 11:40:16;;;;;;;31.27;16.27;;;;;;;;;;4949361;29;20031;-59
2023/06/30 11:42:42;;;;;;;36.08;18.83;;;;;;;;;;4947294;28;20433;-59
2023/06/30 11:45:09;;;;;;;35.22;18.92;;;;;;;;;;4940550;29;20039;-59
2023/06/30 11:47:38;;;;;;;36.05;18.13;;;;;;;;;;4948017;29;20044;-59
2023/06/30 11:50:07;;;;;;;34.05;17.08;;;;;;;;;;4935023;29;20521;-59
2023/06/30 11:52:34;;;;;;;33.10;16.65;;;;;;;;;;4942410;28;20040;-58
2023/06/30 11:55:11;;;;;;;33.58;17.02;;;;;;;;;;4945084;29;20043;-59
2023/06/30 11:57:39;;;;;;;32.60;16.80;;;;;;;;;;4946534;28;20044;-59
2023/06/30 12:00:14;;;;;;;34.58;17.02;;;;;;;;;;4933960;29;20035;-59
2023/06/30 12:02:58;;;;;;;34.35;15.63;;;;;;;;;;4938528;28;20039;-59
2023/06/30 12:05:25;;;;;;;32.05;16.60;;;;;;;;;;4945741;28;20051;-59
2023/06/30 12:07:57;;;;;;;30.08;15.48;;;;;;;;;;4950760;29;20035;-59
2023/06/30 12:10:37;;;;;;;33.10;16.23;;;;;;;;;;4938406;29;20036;-59
2023/06/30 12:13:07;;;;;;;33.30;16.55;;;;;;;;;;4944476;29;20039;-59
2023/06/30 12:15:35;;;;;;;30.85;16.45;;;;;;;;;;4934594;29;20040;-58
2023/06/30 12:18:04;;;;;;;32.13;16.65;;;;;;;;;;4936514;28;20052;-59
2023/06/30 12:20:34;;;;;;;30.90;15.52;;;;;;;;;;4937556;29;20039;-59
2023/06/30 12:23:01;;;;;;;30.00;15.15;;;;;;;;;;4945768;29;20047;-59
2023/06/30 12:25:34;;;;;;;33.97;16.65;;;;;;;;;;4946844;29;20035;-59
2023/06/30 12:28:04;;;;;;;32.75;15.57;;;;;;;;;;4949338;29;20051;-59
2023/06/30 12:30:30;;;;;;;33.00;15.40;;;;;;;;;;4940703;28;20058;-59
2023/06/30 12:32:58;;;;;;;35.88;14.90;;;;;;;;;;4939200;29;20039;-59
2023/06/30 12:35:33;;;;;;;29.02;14.93;;;;;;;;;;4946464;29;20039;-59
2023/06/30 12:37:59;;;;;;;29.50;14.43;;;;;;;;;;4937989;29;20042;-58
2023/06/30 12:40:29;;;;;;;30.05;15.00;;;;;;;;;;4942572;29;20036;-59
2023/06/30 12:42:56;;;;;;;;;;;;;;;;;;4945529;28;20046;-59
2023/06/30 12:45:22;;;;;;;25.50;14.63;;;;;;;;;;4933392;29;20372;-59
2023/06/30 12:47:48;;;;;;;26.33;13.82;;;;;;;;;;4947881;28;20059;-58
2023/06/30 12:50:15;;;;;;;28.23;14.45;;;;;;;;;;4949352;29;20043;-59
2023/06/30 12:52:41;;;;;;;26.67;13.50;;;;;;;;;;4950509;28;20424;-59
2023/06/30 12:55:09;;;;;;;27.08;15.00;;;;;;;;;;4935154;29;20050;-58
2023/06/30 12:57:35;;;;;;;25.15;13.70;;;;;;;;;;4936073;29;20043;-58
2023/06/30 13:00:09;;;;;;;25.38;13.20;;;;;;;;;;4929636;29;20047;-58
2023/06/30 13:02:36;;;;;;;25.88;13.57;;;;;;;;;;4941506;28;20390;-59
2023/06/30 13:05:03;;;;;;;27.13;13.52;;;;;;;;;;4938557;29;20039;-58
2023/06/30 13:07:32;;;;;;;27.05;14.18;;;;;;;;;;4943321;29;20047;-59
2023/06/30 13:10:02;;;;;;;26.52;13.90;;;;;;;;;;4939368;29;20059;-58
2023/06/30 13:12:30;;;;;;;25.88;13.65;;;;;;;;;;4932833;29;20032;-59
2023/06/30 13:14:57;;;;;;;30.73;14.70;;;;;;;;;;4946506;29;20039;-58
2023/06/30 13:17:24;;;;;;;30.15;14.70;;;;;;;;;;4944740;28;20048;-58
2023/06/30 13:19:50;;;;;;;26.67;14.05;;;;;;;;;;4941790;29;20039;-58
2023/06/30 13:22:16;;;;;;;30.40;15.70;;;;;;;;;;4936037;29;20040;-59
2023/06/30 13:24:46;;;;;;;30.80;15.18;;;;;;;;;;4946531;28;20536;-58
2023/06/30 13:27:12;;;;;;;29.05;15.45;;;;;;;;;;4926014;29;20039;-59
2023/06/30 13:29:46;;;;;;;34.60;16.20;;;;;;;;;;4945024;28;20094;-60
2023/06/30 13:32:12;;;;;;;29.60;14.85;;;;;;;;;;4948964;29;20609;-58
2023/06/30 13:34:39;;;;;;;27.80;15.90;;;;;;;;;;4950069;29;20063;-58
2023/06/30 13:37:05;;;;;;;33.10;15.57;;;;;;;;;;4952238;28;20092;-58
2023/06/30 13:39:32;;;;;;;34.60;17.33;;;;;;;;;;4967994;28;20039;-59
2023/06/30 13:41:58;;;;;;;30.90;16.42;;;;;;;;;;4942139;28;20406;-59
2023/06/30 13:44:24;;;;;;;31.40;16.77;;;;;;;;;;4946256;29;20071;-59
2023/06/30 13:46:50;;;;;;;37.55;18.80;;;;;;;;;;4940579;29;20508;-59
2023/06/30 13:49:17;;;;;;;36.35;18.52;;;;;;;;;;4941963;28;20043;-58
2023/06/30 13:51:43;;;;;;;36.13;18.35;;;;;;;;;;4951142;29;20042;-58
2023/06/30 13:54:09;;;;;;;40.50;18.98;;;;;;;;;;4937323;28;20066;-60
2023/06/30 13:56:35;;;;;;;36.95;18.00;;;;;;;;;;4952042;29;20038;-60
2023/06/30 13:59:01;;;;;;;36.03;19.20;;;;;;;;;;4951924;29;20039;-59
2023/06/30 14:01:27;;;;;;;42.17;20.80;;;;;;;;;;4936742;29;20038;-59
2023/06/30 14:03:54;;;;;;;44.05;21.08;;;;;;;;;;4941699;28;20047;-59
2023/06/30 14:06:20;;;;;;;46.22;23.33;;;;;;;;;;4942439;29;20043;-59
2023/06/30 14:08:46;;;;;;;46.88;22.00;;;;;;;;;;4946611;28;20528;-59
2023/06/30 14:11:14;;;;;;;48.53;22.80;;;;;;;;;;4946135;29;20042;-58
2023/06/30 14:13:41;;;;;;;41.97;21.58;;;;;;;;;;4937612;29;20058;-59
2023/06/30 14:16:07;;;;;;;45.05;22.92;;;;;;;;;;4936720;28;20044;-59
2023/06/30 14:18:33;;;;;;;58.80;29.48;;;;;;;;;;4940901;29;20039;-58
2023/06/30 14:21:01;;;;;;;89.80;43.30;;;;;;;;;;4935442;29;20034;-58